Time;durP1;ratioP1;P1;durP2;ratioP2;P2;SDS_P1;SDS_P2;PMS_P1;PMS_P2;Temp;Humidity;BMP_temperature;BMP_pressure;BME280_temperature;BME280_humidity;BME280_pressure;Samples;Min_cycle;Max_cycle;Signal;HPM_P1;HPM_P2
2023/04/17 00:02:00;;;;;;;33.53;17.60;;;8.60;95.90;;;;;;5088357;28;20474;-62
2023/04/17 00:04:29;;;;;;;33.67;17.53;;;8.60;95.90;;;;;;5088972;28;20482;-62
2023/04/17 00:06:56;;;;;;;33.70;18.17;;;8.60;96.00;;;;;;5085263;28;20465;-61
2023/04/17 00:09:22;;;;;;;36.47;18.23;;;8.70;96.00;;;;;;5081351;28;20716;-61
2023/04/17 00:11:49;;;;;;;36.77;19.00;;;8.70;95.90;;;;;;5085409;28;20488;-61
2023/04/17 00:14:16;;;;;;;44.23;21.53;;;8.50;96.50;;;;;;5088737;28;20565;-62
2023/04/17 00:16:43;;;;;;;43.77;24.07;;;8.40;96.80;;;;;;5088067;28;20822;-61
2023/04/17 00:19:09;;;;;;;43.23;24.30;;;8.30;97.20;;;;;;5088821;28;20508;-61
2023/04/17 00:21:37;;;;;;;47.77;20.13;;;8.30;96.90;;;;;;5077581;28;20469;-61
2023/04/17 00:24:04;;;;;;;25.13;15.47;;;8.30;96.50;;;;;;5088543;28;20489;-61
2023/04/17 00:26:33;;;;;;;39.90;18.30;;;8.30;96.40;;;;;;5081481;28;20786;-62
2023/04/17 00:29:00;;;;;;;40.07;16.77;;;8.30;96.20;;;;;;5073478;28;20466;-61
2023/04/17 00:31:27;;;;;;;39.47;20.30;;;8.30;96.40;;;;;;5077829;28;20481;-61
2023/04/17 00:33:54;;;;;;;39.10;20.47;;;8.30;96.30;;;;;;5067715;28;20834;-61
2023/04/17 00:36:21;;;;;;;38.37;17.20;;;8.30;96.40;;;;;;5064303;28;20470;-61
2023/04/17 00:38:49;;;;;;;39.30;20.37;;;8.40;96.40;;;;;;5083701;28;21247;-61
2023/04/17 00:41:15;;;;;;;43.37;21.17;;;8.40;96.30;;;;;;5085225;28;20896;-61
2023/04/17 00:43:42;;;;;;;51.73;18.47;;;8.50;96.30;;;;;;5089013;28;20481;-62
2023/04/17 00:46:09;;;;;;;41.93;21.60;;;8.60;96.40;;;;;;5083299;28;20478;-62
2023/04/17 00:48:39;;;;;;;51.43;23.43;;;8.60;96.50;;;;;;5087881;28;20539;-61
2023/04/17 00:51:06;;;;;;;52.40;21.60;;;8.70;96.60;;;;;;5063401;28;20486;-62
2023/04/17 00:53:33;;;;;;;34.63;19.07;;;8.80;96.60;;;;;;5084516;28;20482;-61
2023/04/17 00:56:03;;;;;;;38.03;20.53;;;8.80;96.70;;;;;;5076199;28;20486;-61
2023/04/17 00:58:31;;;;;;;42.30;20.73;;;8.90;96.40;;;;;;5069744;28;20482;-61
2023/04/17 01:00:58;;;;;;;30.83;16.17;;;8.90;96.50;;;;;;5091781;28;20477;-61
2023/04/17 01:03:24;;;;;;;31.77;17.00;;;8.90;96.70;;;;;;5083697;28;20505;-62
2023/04/17 01:05:52;;;;;;;43.27;20.20;;;8.90;96.50;;;;;;5086452;28;20472;-61
2023/04/17 01:08:19;;;;;;;39.30;18.77;;;8.90;96.70;;;;;;5081798;28;20470;-62
2023/04/17 01:10:46;;;;;;;33.67;17.20;;;8.90;96.70;;;;;;5090107;28;20838;-62
2023/04/17 01:13:14;;;;;;;29.20;15.20;;;8.90;96.70;;;;;;5085872;28;20470;-61
2023/04/17 01:15:41;;;;;;;29.50;15.87;;;8.90;96.80;;;;;;5070467;28;20481;-62
2023/04/17 01:18:08;;;;;;;41.17;19.20;;;8.80;96.80;;;;;;5084302;28;20488;-61
2023/04/17 01:20:35;;;;;;;27.90;15.10;;;8.90;96.80;;;;;;5054855;28;21059;-61
2023/04/17 01:23:01;;;;;;;33.07;17.93;;;8.90;96.80;;;;;;5085954;28;20763;-61
2023/04/17 01:25:30;;;;;;;28.23;17.90;;;8.90;96.80;;;;;;5087293;28;20477;-61
2023/04/17 01:27:56;;;;;;;32.23;17.20;;;9.00;96.80;;;;;;5087933;28;20481;-61
2023/04/17 01:30:23;;;;;;;32.83;18.00;;;9.00;96.70;;;;;;5069547;28;20846;-61
2023/04/17 01:32:50;;;;;;;29.27;18.50;;;9.00;96.70;;;;;;5085657;28;20508;-61
2023/04/17 01:35:17;;;;;;;41.67;21.77;;;9.00;96.90;;;;;;5084336;28;20551;-62
2023/04/17 01:37:43;;;;;;;34.73;20.50;;;9.10;97.00;;;;;;5077236;28;20484;-62
2023/04/17 01:40:11;;;;;;;34.47;20.17;;;9.10;96.90;;;;;;5026810;28;20811;-62
2023/04/17 01:42:39;;;;;;;38.77;21.13;;;9.20;97.00;;;;;;5073299;28;20488;-61
2023/04/17 01:45:07;;;;;;;37.97;22.30;;;9.20;97.10;;;;;;5084229;28;20866;-61
2023/04/17 01:47:34;;;;;;;35.27;20.00;;;9.20;97.00;;;;;;5063633;28;21098;-61
2023/04/17 01:50:01;;;;;;;31.13;18.73;;;9.30;97.20;;;;;;5074374;28;20474;-61
2023/04/17 01:52:27;;;;;;;27.70;19.80;;;9.30;97.20;;;;;;5085524;28;20508;-61
2023/04/17 01:54:54;;;;;;;39.73;22.10;;;9.40;97.30;;;;;;5090768;28;20485;-61
2023/04/17 01:57:21;;;;;;;36.77;18.97;;;9.40;97.40;;;;;;5081596;28;22316;-61
2023/04/17 01:59:49;;;;;;;35.13;19.37;;;9.50;97.30;;;;;;5076900;28;20862;-61
2023/04/17 02:02:15;;;;;;;36.23;19.77;;;9.50;97.30;;;;;;5075070;28;21061;-62
2023/04/17 02:04:42;;;;;;;37.30;20.83;;;9.50;97.40;;;;;;5046936;28;20845;-62
2023/04/17 02:07:09;;;;;;;30.90;20.23;;;9.50;97.20;;;;;;5065081;28;21046;-62
2023/04/17 02:09:35;;;;;;;30.97;19.27;;;9.50;97.50;;;;;;5068127;28;20517;-62
2023/04/17 02:12:02;;;;;;;31.83;18.57;;;9.60;97.40;;;;;;5044151;28;21018;-61
2023/04/17 02:14:30;;;;;;;26.70;17.90;;;9.60;97.50;;;;;;5068149;28;20484;-61
2023/04/17 02:16:58;;;;;;;28.27;19.43;;;9.60;97.50;;;;;;5069296;28;20999;-63
2023/04/17 02:19:25;;;;;;;31.10;17.70;;;9.60;97.50;;;;;;5068863;28;20908;-61
2023/04/17 02:21:51;;;;;;;27.13;18.10;;;9.60;97.40;;;;;;5072168;28;20609;-61
2023/04/17 02:24:18;;;;;;;31.37;20.07;;;9.60;97.40;;;;;;5050670;28;20493;-61
2023/04/17 02:26:45;;;;;;;28.33;17.07;;;9.30;97.30;;;;;;5041704;28;20841;-61
2023/04/17 02:29:12;;;;;;;32.17;20.73;;;9.60;97.30;;;;;;5059335;28;20529;-61
2023/04/17 02:31:40;;;;;;;29.93;20.20;;;9.60;97.50;;;;;;5057362;28;20503;-61
2023/04/17 02:34:08;;;;;;;28.00;15.53;;;9.70;97.40;;;;;;5049174;28;20589;-62
2023/04/17 02:36:35;;;;;;;29.10;18.17;;;9.70;97.50;;;;;;5058279;28;20806;-62
2023/04/17 02:39:02;;;;;;;30.97;19.07;;;9.80;97.40;;;;;;5049424;28;21025;-61
2023/04/17 02:41:29;;;;;;;36.50;19.07;;;9.80;97.30;;;;;;5066451;28;20484;-61
2023/04/17 02:43:58;;;;;;;27.17;17.00;;;9.80;97.40;;;;;;5075719;28;21230;-62
2023/04/17 02:46:24;;;;;;;35.27;21.10;;;9.80;97.40;;;;;;5063295;28;20467;-62
2023/04/17 02:48:51;;;;;;;39.90;20.90;;;9.80;97.70;;;;;;5052790;28;20482;-61
2023/04/17 02:51:19;;;;;;;35.40;22.00;;;9.80;97.70;;;;;;5044657;28;20482;-61
2023/04/17 02:53:47;;;;;;;49.47;22.30;;;9.80;97.70;;;;;;5070916;28;20836;-62
2023/04/17 02:56:14;;;;;;;40.53;24.30;;;9.90;97.80;;;;;;5042536;28;20953;-61
2023/04/17 02:58:43;;;;;;;38.60;23.60;;;9.90;98.00;;;;;;5064874;28;20697;-62
2023/04/17 03:01:10;;;;;;;35.60;24.10;;;9.90;98.10;;;;;;5052541;28;20464;-61
2023/04/17 03:03:40;;;;;;;32.63;21.60;;;10.00;97.60;;;;;;5053179;28;20479;-62
2023/04/17 03:06:07;;;;;;;35.23;21.30;;;10.00;97.80;;;;;;5035007;28;20976;-62
2023/04/17 03:08:37;;;;;;;31.07;19.93;;;10.10;98.00;;;;;;5076646;28;20954;-61
2023/04/17 03:11:04;;;;;;;31.30;21.83;;;10.10;98.00;;;;;;5076833;28;20856;-62
2023/04/17 03:13:34;;;;;;;31.70;20.53;;;10.20;98.00;;;;;;5053047;28;21087;-62
2023/04/17 03:16:01;;;;;;;33.93;20.13;;;10.20;98.40;;;;;;5040122;28;20753;-62
2023/04/17 03:18:27;;;;;;;29.83;20.60;;;10.20;98.50;;;;;;5051689;28;20544;-62
2023/04/17 03:20:54;;;;;;;36.40;22.83;;;10.20;98.60;;;;;;5055935;28;20601;-62
2023/04/17 03:23:21;;;;;;;40.43;21.77;;;10.20;98.60;;;;;;5030517;28;20474;-61
2023/04/17 03:25:49;;;;;;;28.40;18.73;;;10.30;98.60;;;;;;5063045;28;20485;-61
2023/04/17 03:28:16;;;;;;;39.27;22.30;;;10.30;98.70;;;;;;5027096;28;20815;-61
2023/04/17 03:30:42;;;;;;;32.67;19.83;;;10.40;98.50;;;;;;5055746;28;21083;-62
2023/04/17 03:33:09;;;;;;;39.27;22.47;;;10.40;98.30;;;;;;5042199;28;20490;-62
2023/04/17 03:35:36;;;;;;;34.53;20.90;;;10.50;98.30;;;;;;5069539;28;20731;-61
2023/04/17 03:38:03;;;;;;;44.27;21.73;;;10.50;98.20;;;;;;5068918;28;20478;-62
2023/04/17 03:40:29;;;;;;;33.60;20.47;;;10.50;98.20;;;;;;5065334;28;20489;-61
2023/04/17 03:42:57;;;;;;;29.67;18.63;;;10.50;98.20;;;;;;5066694;28;21139;-61
2023/04/17 03:45:24;;;;;;;34.37;19.77;;;10.60;98.30;;;;;;5071116;28;20475;-61
2023/04/17 03:47:51;;;;;;;28.73;21.33;;;10.60;98.20;;;;;;5037618;28;20484;-61
2023/04/17 03:50:18;;;;;;;33.50;21.63;;;10.70;98.20;;;;;;5051008;28;20495;-61
2023/04/17 03:52:45;;;;;;;30.17;20.90;;;10.70;98.10;;;;;;5070508;28;21025;-62
2023/04/17 03:55:12;;;;;;;31.03;21.27;;;10.70;98.30;;;;;;5042203;28;20494;-62
2023/04/17 03:57:39;;;;;;;31.97;19.93;;;10.70;98.50;;;;;;5062016;28;20482;-61
2023/04/17 04:00:09;;;;;;;41.60;22.30;;;10.70;98.30;;;;;;5067604;28;20482;-61
2023/04/17 04:02:36;;;;;;;35.67;20.30;;;10.70;98.20;;;;;;5072949;28;20479;-62
2023/04/17 04:05:02;;;;;;;27.83;19.87;;;10.70;98.20;;;;;;5063711;28;20478;-62
2023/04/17 04:07:29;;;;;;;39.40;20.00;;;10.70;98.30;;;;;;5070363;28;20482;-62
2023/04/17 04:09:56;;;;;;;38.47;20.50;;;10.70;98.20;;;;;;5070771;28;20881;-61
2023/04/17 04:12:23;;;;;;;33.20;20.13;;;10.70;98.40;;;;;;5070383;28;20493;-62
2023/04/17 04:14:49;;;;;;;40.77;20.00;;;10.70;98.40;;;;;;5070733;28;20922;-62
2023/04/17 04:17:17;;;;;;;33.23;19.83;;;10.70;98.30;;;;;;5074362;28;20490;-61
2023/04/17 04:19:45;;;;;;;37.27;21.10;;;10.60;98.30;;;;;;5059647;28;20467;-61
2023/04/17 04:22:13;;;;;;;34.27;20.47;;;10.70;98.50;;;;;;5051076;28;20486;-62
2023/04/17 04:24:40;;;;;;;35.17;20.40;;;10.60;98.50;;;;;;5068440;28;20574;-62
2023/04/17 04:27:07;;;;;;;30.70;20.60;;;10.70;98.60;;;;;;5071575;28;20503;-61
2023/04/17 04:29:33;;;;;;;26.77;17.93;;;10.70;98.50;;;;;;5075289;28;20521;-61
2023/04/17 04:32:01;;;;;;;31.00;20.00;;;10.70;98.50;;;;;;5077731;28;20499;-61
2023/04/17 04:34:29;;;;;;;30.53;20.40;;;10.70;98.50;;;;;;5052206;28;20600;-61
2023/04/17 04:36:56;;;;;;;35.07;18.60;;;10.70;98.60;;;;;;5055498;28;20573;-61
2023/04/17 04:39:23;;;;;;;29.20;18.47;;;10.70;98.50;;;;;;5030766;28;20482;-62
2023/04/17 04:41:50;;;;;;;32.83;19.57;;;10.70;98.60;;;;;;5051408;28;20483;-61
2023/04/17 04:44:17;;;;;;;38.33;20.97;;;10.70;98.70;;;;;;5063945;28;20496;-62
2023/04/17 04:46:44;;;;;;;36.50;22.20;;;10.70;98.70;;;;;;5044163;28;21238;-61
2023/04/17 04:49:11;;;;;;;34.97;20.60;;;10.70;98.80;;;;;;5064591;28;20483;-62
2023/04/17 04:51:40;;;;;;;32.10;19.83;;;10.70;98.90;;;;;;5068487;28;20474;-62
2023/04/17 04:54:06;;;;;;;37.67;20.37;;;10.70;99.20;;;;;;5033545;28;20482;-62
2023/04/17 04:56:33;;;;;;;31.77;20.27;;;10.70;99.30;;;;;;5053517;28;20832;-61
2023/04/17 04:59:00;;;;;;;35.70;18.37;;;10.80;99.40;;;;;;5063092;28;20481;-62
2023/04/17 05:01:28;;;;;;;37.53;21.20;;;10.80;99.40;;;;;;5072374;28;20486;-61
2023/04/17 05:03:55;;;;;;;31.93;19.30;;;10.70;99.50;;;;;;5049216;28;20476;-61
2023/04/17 05:06:22;;;;;;;33.60;17.37;;;10.80;99.70;;;;;;5059873;28;20482;-61
2023/04/17 05:08:50;;;;;;;29.57;19.17;;;10.80;99.80;;;;;;5059955;28;20497;-61
2023/04/17 05:11:16;;;;;;;37.03;21.00;;;10.80;99.90;;;;;;5063241;28;20754;-61
2023/04/17 05:13:43;;;;;;;37.13;20.17;;;10.90;99.80;;;;;;5077504;28;20486;-61
2023/04/17 05:16:10;;;;;;;31.00;19.27;;;10.90;99.90;;;;;;5076906;28;20716;-61
2023/04/17 05:18:37;;;;;;;27.00;17.57;;;;;;;;;;5073898;28;20839;-61
2023/04/17 05:21:04;;;;;;;33.57;17.43;;;10.90;99.90;;;;;;5048951;28;20497;-61
2023/04/17 05:23:31;;;;;;;31.20;19.87;;;10.90;99.90;;;;;;5055550;28;20481;-61
2023/04/17 05:25:59;;;;;;;32.23;18.80;;;10.90;99.90;;;;;;5050151;28;20477;-61
2023/04/17 05:28:28;;;;;;;35.10;20.83;;;10.90;99.90;;;;;;5078901;28;20501;-61
2023/04/17 05:30:55;;;;;;;28.97;18.40;;;10.90;99.90;;;;;;5058573;28;20550;-61
2023/04/17 05:33:22;;;;;;;37.03;19.37;;;10.90;99.90;;;;;;5082527;28;20974;-60
2023/04/17 05:35:49;;;;;;;39.60;20.43;;;10.90;99.90;;;;;;5089950;28;20478;-60
2023/04/17 05:38:16;;;;;;;43.67;21.80;;;10.90;99.90;;;;;;5068828;28;20482;-61
2023/04/17 05:40:43;;;;;;;34.37;19.97;;;10.90;99.90;;;;;;5065621;28;20478;-61
2023/04/17 05:43:12;;;;;;;39.77;20.30;;;10.90;99.90;;;;;;5073218;28;20477;-61
2023/04/17 05:45:40;;;;;;;31.90;20.67;;;;;;;;;;5058736;28;20965;-61
2023/04/17 05:48:07;;;;;;;34.07;19.10;;;11.00;99.90;;;;;;5062110;28;20566;-62
2023/04/17 05:50:33;;;;;;;33.90;20.70;;;11.00;99.90;;;;;;5066556;28;20474;-61
2023/04/17 05:53:00;;;;;;;31.80;18.33;;;11.00;99.90;;;;;;5079499;28;21020;-61
2023/04/17 05:55:27;;;;;;;29.57;18.63;;;11.00;99.90;;;;;;5089159;28;20626;-61
2023/04/17 05:57:54;;;;;;;38.07;21.57;;;11.00;99.90;;;;;;5071335;28;20474;-61
2023/04/17 06:00:23;;;;;;;40.80;22.83;;;11.10;99.90;;;;;;5024433;28;20573;-61
2023/04/17 06:02:51;;;;;;;39.30;21.33;;;11.10;99.90;;;;;;5071597;28;20535;-61
2023/04/17 06:05:17;;;;;;;39.97;23.73;;;11.10;99.90;;;;;;5068531;28;20509;-61
2023/04/17 06:07:44;;;;;;;38.60;21.10;;;11.20;99.90;;;;;;5087699;28;20482;-61
2023/04/17 06:10:11;;;;;;;35.40;21.10;;;11.20;99.90;;;;;;5069883;28;20473;-61
2023/04/17 06:12:38;;;;;;;39.27;22.47;;;11.30;99.90;;;;;;5062890;28;21253;-61
2023/04/17 06:15:07;;;;;;;38.90;23.67;;;11.30;99.90;;;;;;5043083;28;20508;-61
2023/04/17 06:17:35;;;;;;;42.33;21.57;;;11.30;99.90;;;;;;5070652;28;20997;-61
2023/04/17 06:20:03;;;;;;;40.93;23.70;;;11.40;99.90;;;;;;5071240;28;20474;-61
2023/04/17 06:22:38;;;;;;;44.90;24.47;;;11.40;99.90;;;;;;5064416;28;20826;-61
2023/04/17 06:25:06;;;;;;;43.23;22.53;;;11.30;99.90;;;;;;5080822;28;21004;-61
2023/04/17 06:27:33;;;;;;;34.63;20.43;;;11.40;99.90;;;;;;5064820;28;20485;-61
2023/04/17 06:29:59;;;;;;;33.13;20.43;;;11.40;99.90;;;;;;5071476;28;20482;-61
2023/04/17 06:32:26;;;;;;;37.73;21.10;;;11.50;99.90;;;;;;5060171;28;20474;-61
2023/04/17 06:34:54;;;;;;;36.33;22.80;;;11.50;99.90;;;;;;5073472;28;20489;-61
2023/04/17 06:37:21;;;;;;;38.17;23.07;;;11.40;99.90;;;;;;5054567;28;20982;-61
2023/04/17 06:39:47;;;;;;;40.23;22.40;;;11.50;99.90;;;;;;5073133;28;20478;-61
2023/04/17 06:42:15;;;;;;;35.40;21.40;;;11.40;99.90;;;;;;5077690;28;20474;-61
2023/04/17 06:44:41;;;;;;;37.07;22.60;;;11.50;99.90;;;;;;5064532;28;20479;-61
2023/04/17 06:47:08;;;;;;;43.37;23.80;;;11.50;99.90;;;;;;5062753;28;20462;-61
2023/04/17 06:49:35;;;;;;;38.87;21.53;;;11.50;99.90;;;;;;5090551;28;20489;-62
2023/04/17 06:52:04;;;;;;;29.13;19.70;;;11.50;99.90;;;;;;5094916;28;20481;-61
2023/04/17 06:54:32;;;;;;;42.97;20.80;;;11.50;99.90;;;;;;5077066;28;20505;-62
2023/04/17 06:56:58;;;;;;;35.10;20.10;;;11.60;99.90;;;;;;5081012;28;20492;-61
2023/04/17 06:59:25;;;;;;;30.27;17.80;;;11.60;99.90;;;;;;5072646;28;21002;-61
2023/04/17 07:01:52;;;;;;;32.90;19.87;;;12.70;99.90;;;;;;5073527;28;20531;-61
2023/04/17 07:04:19;;;;;;;44.73;24.23;;;11.60;99.90;;;;;;5073116;28;21049;-61
2023/04/17 07:06:46;;;;;;;43.60;20.87;;;11.70;99.90;;;;;;5076915;28;20558;-61
2023/04/17 07:09:15;;;;;;;47.70;23.03;;;11.70;99.90;;;;;;5094984;28;20469;-62
2023/04/17 07:11:42;;;;;;;43.73;22.97;;;11.80;99.90;;;;;;5078370;28;20553;-62
2023/04/17 07:14:08;;;;;;;50.73;24.23;;;11.80;99.90;;;;;;5056668;28;20482;-61
2023/04/17 07:16:35;;;;;;;40.27;22.90;;;11.90;99.90;;;;;;5062973;28;20470;-62
2023/04/17 07:19:02;;;;;;;32.63;21.27;;;12.00;99.90;;;;;;5047792;28;20489;-61
2023/04/17 07:21:28;;;;;;;31.53;20.80;;;12.00;99.90;;;;;;5053478;28;20465;-62
2023/04/17 07:23:55;;;;;;;44.23;23.73;;;12.10;99.90;;;;;;5048773;28;20478;-62
2023/04/17 07:26:23;;;;;;;34.27;19.83;;;12.00;99.90;;;;;;5061524;28;21034;-62
2023/04/17 07:28:50;;;;;;;39.77;22.27;;;12.10;99.90;;;;;;5076827;28;20841;-62
2023/04/17 07:31:17;;;;;;;40.83;22.10;;;12.20;99.90;;;;;;5045274;28;20548;-62
2023/04/17 07:33:44;;;;;;;36.37;22.10;;;12.30;99.90;;;;;;5056860;28;21111;-62
2023/04/17 07:36:11;;;;;;;30.57;20.17;;;12.40;99.90;;;;;;5078062;28;20507;-62
2023/04/17 07:38:38;;;;;;;33.00;19.53;;;12.50;99.90;;;;;;5055731;28;21167;-61
2023/04/17 07:41:05;;;;;;;34.27;19.37;;;12.50;99.90;;;;;;5054534;28;20485;-62
2023/04/17 07:43:33;;;;;;;34.10;19.77;;;12.50;99.90;;;;;;5047740;28;20529;-62
2023/04/17 07:46:00;;;;;;;37.63;16.73;;;12.50;99.90;;;;;;5080126;28;20703;-62
2023/04/17 07:48:28;;;;;;;33.43;21.20;;;12.50;99.90;;;;;;5056525;28;20823;-62
2023/04/17 07:50:55;;;;;;;30.77;19.67;;;;;;;;;;5051533;28;20483;-62
2023/04/17 07:53:24;;;;;;;38.20;19.93;;;12.90;99.90;;;;;;5066482;28;20480;-62
2023/04/17 07:55:51;;;;;;;32.20;20.07;;;13.20;99.90;;;;;;5081258;28;21005;-62
2023/04/17 07:58:18;;;;;;;33.83;20.87;;;13.70;99.90;;;;;;5079791;28;20575;-62
2023/04/17 08:00:46;;;;;;;32.70;19.60;;;14.00;99.90;;;;;;5086075;28;20484;-62
2023/04/17 08:03:13;;;;;;;34.30;20.83;;;14.20;99.90;;;;;;5076270;28;20475;-62
2023/04/17 08:05:40;;;;;;;36.57;22.10;;;14.50;99.70;;;;;;5086464;28;20929;-62
2023/04/17 08:08:07;;;;;;;31.17;20.80;;;14.50;98.60;;;;;;5060505;28;20564;-62
2023/04/17 08:10:34;;;;;;;32.50;21.40;;;14.40;98.70;;;;;;5071972;28;20536;-62
2023/04/17 08:13:03;;;;;;;32.03;16.17;;;14.50;98.70;;;;;;5056819;28;20487;-62
2023/04/17 08:15:30;;;;;;;31.97;18.90;;;14.40;98.10;;;;;;5080322;28;20486;-62
2023/04/17 08:17:58;;;;;;;32.53;22.13;;;14.40;98.60;;;;;;5047243;28;21158;-62
2023/04/17 08:20:26;;;;;;;35.53;20.50;;;14.50;98.50;;;;;;5042714;28;20477;-62
2023/04/17 08:22:52;;;;;;;36.17;22.00;;;14.50;98.10;;;;;;5050146;28;20495;-62
2023/04/17 08:25:19;;;;;;;40.80;21.10;;;14.50;97.60;;;;;;5048592;28;20494;-62
2023/04/17 08:27:46;;;;;;;32.43;19.80;;;14.50;97.60;;;;;;5064919;28;21011;-62
2023/04/17 08:30:14;;;;;;;42.13;22.90;;;14.60;97.50;;;;;;5058385;28;20467;-62
2023/04/17 08:32:42;;;;;;;29.70;16.17;;;14.50;97.30;;;;;;5059808;28;20476;-62
2023/04/17 08:35:12;;;;;;;49.30;21.00;;;14.50;97.10;;;;;;5063750;28;20505;-62
2023/04/17 08:37:39;;;;;;;35.40;20.40;;;14.60;97.40;;;;;;5035917;28;20904;-62
2023/04/17 08:40:08;;;;;;;35.70;19.10;;;14.60;96.50;;;;;;5052328;28;20482;-61
2023/04/17 08:42:36;;;;;;;32.67;15.83;;;14.50;96.10;;;;;;5070098;28;20856;-62
2023/04/17 08:45:05;;;;;;;30.20;17.07;;;14.60;97.30;;;;;;5052878;28;20475;-62
2023/04/17 08:47:33;;;;;;;32.03;19.83;;;14.80;97.70;;;;;;5055965;28;20575;-62
2023/04/17 08:50:01;;;;;;;41.97;20.20;;;15.20;96.40;;;;;;5050802;28;21024;-62
2023/04/17 08:52:28;;;;;;;33.67;19.27;;;15.40;96.80;;;;;;5058071;28;20502;-62
2023/04/17 08:54:55;;;;;;;26.30;16.00;;;15.50;95.90;;;;;;5066097;28;20481;-62
2023/04/17 08:57:22;;;;;;;30.07;16.30;;;15.80;96.20;;;;;;5062875;28;20491;-62
2023/04/17 08:59:48;;;;;;;34.50;18.90;;;16.00;95.50;;;;;;5046821;28;20496;-62
2023/04/17 09:02:15;;;;;;;33.90;19.00;;;16.10;96.20;;;;;;5043139;28;20502;-62
2023/04/17 09:04:43;;;;;;;33.50;17.80;;;16.10;95.20;;;;;;5050550;28;20720;-62
2023/04/17 09:07:11;;;;;;;27.73;17.20;;;16.20;95.40;;;;;;5030585;28;20996;-62
2023/04/17 09:09:53;;;;;;;26.53;14.37;;;16.10;94.20;;;;;;5034147;28;20479;-62
2023/04/17 09:12:20;;;;;;;26.27;13.70;;;15.90;94.20;;;;;;5021667;28;20973;-62
2023/04/17 09:14:47;;;;;;;33.70;16.90;;;15.50;93.60;;;;;;5052236;28;20596;-62
2023/04/17 09:17:17;;;;;;;34.33;16.80;;;15.00;94.00;;;;;;5043555;28;20474;-62
2023/04/17 09:20:05;;;;;;;26.43;16.17;;;14.80;94.70;;;;;;5026554;28;20592;-62
2023/04/17 09:22:31;;;;;;;27.00;14.67;;;14.50;94.90;;;;;;5029958;28;20544;-62
2023/04/17 09:25:00;;;;;;;31.33;16.63;;;15.40;95.30;;;;;;5038528;28;20559;-62
2023/04/17 09:27:27;;;;;;;30.60;17.30;;;14.40;95.10;;;;;;5027949;28;20531;-62
2023/04/17 09:29:59;;;;;;;37.07;20.13;;;14.30;95.90;;;;;;5019551;28;20490;-62
2023/04/17 09:32:27;;;;;;;37.43;22.17;;;14.20;95.90;;;;;;5037022;28;20479;-62
2023/04/17 09:34:55;;;;;;;38.23;22.60;;;;;;;;;;5040660;28;20480;-62
2023/04/17 09:37:22;;;;;;;29.70;18.53;;;14.10;96.10;;;;;;5029039;28;20490;-62
2023/04/17 09:40:03;;;;;;;34.07;21.23;;;14.10;96.20;;;;;;5048972;28;20488;-62
2023/04/17 09:42:30;;;;;;;40.83;20.67;;;14.00;96.10;;;;;;5039627;28;20590;-62
2023/04/17 09:44:57;;;;;;;29.67;19.80;;;14.10;96.40;;;;;;5051418;28;20487;-62
2023/04/17 09:47:23;;;;;;;35.87;22.47;;;14.10;96.50;;;;;;5033017;28;21264;-62
2023/04/17 09:49:52;;;;;;;35.60;20.30;;;14.20;96.70;;;;;;5050842;28;20983;-62
2023/04/17 09:52:22;;;;;;;33.73;21.73;;;14.40;96.40;;;;;;5043966;28;20490;-62
2023/04/17 09:54:50;;;;;;;25.70;18.70;;;14.30;96.20;;;;;;5042489;28;20766;-62
2023/04/17 09:57:18;;;;;;;30.03;19.43;;;14.30;96.30;;;;;;5042759;28;20536;-62
2023/04/17 09:59:47;;;;;;;30.70;18.73;;;14.30;96.30;;;;;;5037762;28;20518;-62
2023/04/17 10:02:15;;;;;;;28.03;20.80;;;14.30;96.10;;;;;;5029145;28;20513;-62
2023/04/17 10:04:43;;;;;;;36.03;22.10;;;14.30;95.80;;;;;;5042003;28;20491;-62
2023/04/17 10:07:11;;;;;;;30.83;19.63;;;14.40;96.20;;;;;;5055288;28;20479;-62
2023/04/17 10:09:40;;;;;;;26.43;19.17;;;14.30;95.90;;;;;;5051646;28;20475;-62
2023/04/17 10:12:11;;;;;;;30.27;20.30;;;14.30;96.00;;;;;;5038076;28;20853;-62
2023/04/17 10:14:42;;;;;;;31.07;20.47;;;14.30;96.20;;;;;;5023173;28;20819;-62
2023/04/17 10:17:22;;;;;;;36.97;21.13;;;14.30;96.10;;;;;;5040762;28;20609;-62
2023/04/17 10:19:49;;;;;;;25.90;18.57;;;14.20;95.90;;;;;;5038049;28;20490;-62
2023/04/17 10:22:29;;;;;;;32.40;18.53;;;14.00;96.00;;;;;;5046482;28;20479;-62
2023/04/17 10:25:17;;;;;;;31.30;20.60;;;14.10;96.00;;;;;;5048099;28;20553;-62
2023/04/17 10:27:45;;;;;;;31.73;19.37;;;14.00;96.00;;;;;;5021995;28;20492;-62
2023/04/17 10:30:15;;;;;;;29.53;18.73;;;14.00;96.10;;;;;;5021440;28;20574;-62
2023/04/17 10:32:42;;;;;;;26.27;17.30;;;13.90;96.00;;;;;;5036888;28;20753;-62
2023/04/17 10:35:34;;;;;;;25.03;18.20;;;14.00;96.40;;;;;;5045052;28;20475;-62
2023/04/17 10:38:06;;;;;;;27.03;17.53;;;14.00;96.10;;;;;;5044040;28;21003;-62
2023/04/17 10:40:34;;;;;;;27.00;18.30;;;14.00;95.90;;;;;;5049579;28;20835;-62
2023/04/17 10:43:12;;;;;;;24.57;15.60;;;14.10;95.90;;;;;;5050885;28;21057;-62
2023/04/17 10:46:03;;;;;;;24.23;17.70;;;14.10;95.80;;;;;;5023378;28;20479;-62
2023/04/17 10:48:35;;;;;;;31.90;15.57;;;14.20;95.60;;;;;;5019774;28;20487;-62
2023/04/17 10:51:22;;;;;;;19.73;14.53;;;14.30;95.90;;;;;;5040155;28;20603;-62
2023/04/17 10:53:51;;;;;;;27.73;15.53;;;14.40;95.60;;;;;;5033530;28;20507;-61
2023/04/17 10:56:19;;;;;;;21.93;15.43;;;14.60;96.10;;;;;;5048588;28;20482;-62
2023/04/17 10:58:58;;;;;;;20.93;14.37;;;14.80;95.70;;;;;;5057045;28;20486;-62
2023/04/17 11:01:27;;;;;;;21.40;14.47;;;15.00;95.90;;;;;;5076911;28;20904;-62
2023/04/17 11:03:53;;;;;;;20.00;14.63;;;15.10;95.20;;;;;;5060064;28;21265;-62
2023/04/17 11:06:21;;;;;;;23.00;13.70;;;15.20;95.00;;;;;;5060218;28;20477;-62
2023/04/17 11:08:50;;;;;;;17.63;12.53;;;15.30;94.80;;;;;;5067123;28;20467;-62
2023/04/17 11:11:18;;;;;;;20.03;14.00;;;15.30;94.80;;;;;;5072732;28;20505;-62
2023/04/17 11:13:48;;;;;;;21.10;14.27;;;15.30;94.70;;;;;;5066524;28;20514;-62
2023/04/17 11:16:15;;;;;;;20.90;13.23;;;15.30;94.60;;;;;;5071610;28;20674;-62
2023/04/17 11:18:42;;;;;;;20.63;14.40;;;15.30;94.60;;;;;;5076246;28;20567;-62
2023/04/17 11:21:11;;;;;;;28.50;18.20;;;15.30;94.70;;;;;;5057730;28;20477;-62
2023/04/17 11:23:38;;;;;;;22.70;14.37;;;15.30;94.40;;;;;;5082387;28;20474;-62
2023/04/17 11:26:07;;;;;;;20.50;14.77;;;15.30;94.50;;;;;;5086979;28;20573;-62
2023/04/17 11:28:35;;;;;;;27.20;14.57;;;15.20;94.60;;;;;;5067441;28;20479;-62
2023/04/17 11:31:02;;;;;;;22.30;14.80;;;15.30;94.50;;;;;;5064266;28;20483;-62
2023/04/17 11:33:35;;;;;;;22.63;12.37;;;15.30;94.70;;;;;;5065002;28;20474;-62
2023/04/17 11:36:03;;;;;;;19.53;13.10;;;15.30;94.30;;;;;;5085151;28;20488;-62
2023/04/17 11:38:31;;;;;;;23.97;14.27;;;15.40;94.70;;;;;;5075415;28;20503;-62
2023/04/17 11:40:59;;;;;;;19.80;12.73;;;15.50;94.30;;;;;;5045380;28;20490;-62
2023/04/17 11:43:28;;;;;;;24.53;13.33;;;15.40;93.80;;;;;;5065486;28;20493;-62
2023/04/17 11:45:57;;;;;;;13.97;10.43;;;15.50;94.10;;;;;;5056249;28;20475;-62
2023/04/17 11:48:27;;;;;;;15.60;11.40;;;15.50;93.90;;;;;;5056400;28;20570;-62
2023/04/17 11:50:56;;;;;;;17.20;11.50;;;15.30;93.80;;;;;;5081175;28;20890;-62
2023/04/17 11:53:23;;;;;;;13.90;10.73;;;15.30;94.10;;;;;;5079734;28;21345;-62
2023/04/17 11:56:11;;;;;;;18.63;10.23;;;15.20;93.50;;;;;;5059578;28;20978;-62
2023/04/17 11:58:49;;;;;;;13.27;10.60;;;15.10;93.70;;;;;;5058043;28;20982;-62
2023/04/17 12:01:16;;;;;;;17.20;10.70;;;15.10;93.40;;;;;;5054617;28;20475;-62
2023/04/17 12:03:43;;;;;;;18.00;11.33;;;15.20;94.60;;;;;;5053245;28;20992;-62
2023/04/17 12:06:12;;;;;;;17.57;11.70;;;15.20;93.70;;;;;;5037104;28;20483;-62
2023/04/17 12:08:43;;;;;;;18.07;12.90;;;15.30;94.00;;;;;;5054762;28;21101;-62
2023/04/17 12:11:16;;;;;;;15.93;12.33;;;15.30;93.60;;;;;;5035712;28;20843;-63
2023/04/17 12:13:42;;;;;;;17.93;11.10;;;15.40;93.80;;;;;;5047166;28;20486;-62
2023/04/17 12:16:11;;;;;;;19.53;13.53;;;15.40;93.40;;;;;;5042808;28;20483;-62
2023/04/17 12:18:37;;;;;;;15.87;11.63;;;15.40;93.10;;;;;;4999697;28;21023;-62
2023/04/17 12:21:04;;;;;;;25.13;11.23;;;15.40;93.20;;;;;;5032773;28;20499;-62
2023/04/17 12:23:31;;;;;;;13.73;9.93;;;15.40;93.00;;;;;;5058526;28;20497;-62
2023/04/17 12:25:57;;;;;;;19.10;12.70;;;15.40;92.90;;;;;;5072706;28;20486;-62
2023/04/17 12:28:24;;;;;;;24.00;12.20;;;15.30;92.80;;;;;;5045708;28;20566;-62
2023/04/17 12:30:51;;;;;;;16.07;10.07;;;15.30;93.00;;;;;;5049016;28;20564;-62
2023/04/17 12:33:19;;;;;;;22.60;14.03;;;15.30;93.10;;;;;;5049452;28;20801;-61
2023/04/17 12:35:46;;;;;;;26.80;13.37;;;15.20;92.40;;;;;;5019396;28;20635;-62